Time;durP1;ratioP1;P1;durP2;ratioP2;P2;SDS_P1;SDS_P2;PMS_P1;PMS_P2;Temp;Humidity;BMP_temperature;BMP_pressure;BME280_temperature;BME280_humidity;BME280_pressure;Samples;Min_cycle;Max_cycle;Signal;HPM_P1;HPM_P2
2022/04/13 00:00:48;;;;;;;3.87;3.47;;;;;;;;;;5093893;28;20493;-81
2022/04/13 00:03:15;;;;;;;7.30;3.40;;;;;;;;;;5089135;28;20488;-80
2022/04/13 00:05:42;;;;;;;5.20;3.87;;;;;;;;;;5087991;28;20445;-78
2022/04/13 00:08:09;;;;;;;4.90;3.80;;;;;;;;;;5090532;28;20462;-80
2022/04/13 00:10:39;;;;;;;3.67;3.23;;;;;;;;;;5091780;28;20437;-78
2022/04/13 00:13:06;;;;;;;5.90;3.30;;;;;;;;;;5091794;28;20441;-80
2022/04/13 00:15:34;;;;;;;6.33;3.70;;;;;;;;;;5092295;28;20460;-78
2022/04/13 00:18:05;;;;;;;4.47;3.47;;;;;;;;;;5090954;28;20463;-78
2022/04/13 00:20:32;;;;;;;4.33;3.40;;;;;;;;;;5093187;28;20443;-80
2022/04/13 00:22:59;;;;;;;4.30;3.50;;;;;;;;;;5093597;28;20479;-80
2022/04/13 00:25:28;;;;;;;4.93;3.47;;;;;;;;;;5089654;28;20952;-78
2022/04/13 00:27:56;;;;;;;4.10;3.53;;;;;;;;;;5087301;28;21052;-78
2022/04/13 00:30:23;;;;;;;6.33;3.83;;;;;;;;;;5089731;28;20447;-80
2022/04/13 00:32:50;;;;;;;5.10;3.60;;;;;;;;;;5090772;28;20470;-79
2022/04/13 00:35:18;;;;;;;5.93;4.00;;;;;;;;;;5091070;28;20925;-78
2022/04/13 00:37:45;;;;;;;5.03;4.47;;;;;;;;;;5091197;28;20460;-80
2022/04/13 00:40:12;;;;;;;6.27;3.60;;;;;;;;;;5091312;28;20781;-80
2022/04/13 00:42:40;;;;;;;5.80;4.13;;;;;;;;;;5092436;28;20761;-78
2022/04/13 00:45:08;;;;;;;5.73;4.00;;;;;;;;;;5093164;28;20439;-80
2022/04/13 00:47:39;;;;;;;5.87;3.70;;;;;;;;;;5090426;28;20436;-80
2022/04/13 00:50:06;;;;;;;4.80;3.73;;;;;;;;;;5087215;28;20932;-81
2022/04/13 00:52:35;;;;;;;5.73;4.10;;;;;;;;;;5088519;28;20876;-79
2022/04/13 00:55:03;;;;;;;4.67;4.00;;;;;;;;;;5090972;28;21127;-79
2022/04/13 00:57:31;;;;;;;6.90;4.97;;;;;;;;;;5089159;28;20439;-79
2022/04/13 00:59:59;;;;;;;9.90;4.43;;;;;;;;;;5089105;28;20516;-79
2022/04/13 01:02:29;;;;;;;5.97;4.30;;;;;;;;;;5091327;28;20502;-81
2022/04/13 01:04:59;;;;;;;5.77;4.90;;;;;;;;;;5091392;28;20467;-80
2022/04/13 01:07:26;;;;;;;4.97;3.93;;;;;;;;;;5092229;28;20915;-78
2022/04/13 01:09:55;;;;;;;4.67;4.03;;;;;;;;;;5090811;28;20435;-81
2022/04/13 01:12:22;;;;;;;4.50;3.57;;;;;;;;;;5086877;28;20784;-78
2022/04/13 01:14:49;;;;;;;4.97;4.00;;;;;;;;;;5087491;28;20427;-77
2022/04/13 01:17:16;;;;;;;4.50;3.73;;;;;;;;;;5090319;28;20447;-78
2022/04/13 01:19:46;;;;;;;6.20;3.80;;;;;;;;;;5090065;28;20522;-77
2022/04/13 01:22:17;;;;;;;9.33;4.70;;;;;;;;;;5090153;28;20999;-78
2022/04/13 01:24:45;;;;;;;5.63;4.17;;;;;;;;;;5090826;28;20786;-80
2022/04/13 01:27:14;;;;;;;4.67;4.07;;;;;;;;;;5090808;28;20458;-79
2022/04/13 01:29:42;;;;;;;4.40;4.00;;;;;;;;;;5092077;28;20478;-80
2022/04/13 01:32:09;;;;;;;7.73;5.13;;;;;;;;;;5090944;28;21907;-78
2022/04/13 01:34:37;;;;;;;6.57;4.83;;;;;;;;;;5086217;28;20469;-78
2022/04/13 01:37:04;;;;;;;6.00;4.80;;;;;;;;;;5087678;28;20833;-79
2022/04/13 01:39:32;;;;;;;5.33;4.00;;;;;;;;;;5089414;28;20459;-80
2022/04/13 01:42:00;;;;;;;6.03;3.87;;;;;;;;;;5089615;28;20752;-79
2022/04/13 01:44:27;;;;;;;7.13;4.33;;;;;;;;;;5090227;28;20439;-79
2022/04/13 01:46:54;;;;;;;5.43;3.70;;;;;;;;;;5090124;28;20804;-80
2022/04/13 01:49:21;;;;;;;5.23;4.00;;;;;;;;;;5090356;28;20475;-80
2022/04/13 01:51:48;;;;;;;10.90;4.60;;;;;;;;;;5091621;28;20483;-78
2022/04/13 01:54:15;;;;;;;5.70;4.10;;;;;;;;;;5090751;28;20447;-79
2022/04/13 01:56:44;;;;;;;6.33;3.70;;;;;;;;;;5086076;28;20459;-80
2022/04/13 01:59:11;;;;;;;4.23;3.83;;;;;;;;;;5086564;28;20820;-78
2022/04/13 02:01:43;;;;;;;5.00;3.73;;;;;;;;;;5088890;28;21140;-81
2022/04/13 02:04:16;;;;;;;7.03;4.37;;;;;;;;;;5089269;28;20483;-78
2022/04/13 02:06:43;;;;;;;5.90;4.57;;;;;;;;;;5089594;28;20444;-81
2022/04/13 02:09:11;;;;;;;4.50;4.07;;;;;;;;;;5089872;28;20467;-81
2022/04/13 02:11:38;;;;;;;5.30;3.93;;;;;;;;;;5090172;28;20470;-80
2022/04/13 02:14:07;;;;;;;4.70;3.83;;;;;;;;;;5091405;28;20439;-79
2022/04/13 02:16:34;;;;;;;3.90;3.43;;;;;;;;;;5091355;28;20451;-78
2022/04/13 02:19:01;;;;;;;4.53;3.67;;;;;;;;;;5085979;28;20447;-80
2022/04/13 02:21:30;;;;;;;4.20;3.80;;;;;;;;;;5085596;28;20420;-79
2022/04/13 02:23:57;;;;;;;5.17;3.60;;;;;;;;;;5088546;28;20483;-79
2022/04/13 02:26:24;;;;;;;5.37;4.07;;;;;;;;;;5089031;28;20469;-81
2022/04/13 02:28:53;;;;;;;4.13;3.67;;;;;;;;;;5088940;28;20571;-77
2022/04/13 02:31:22;;;;;;;8.57;4.60;;;;;;;;;;5088233;28;20499;-79
2022/04/13 02:33:52;;;;;;;4.50;3.30;;;;;;;;;;5087765;28;20466;-81
2022/04/13 02:36:20;;;;;;;6.77;4.00;;;;;;;;;;5089720;28;20439;-82
2022/04/13 02:38:47;;;;;;;4.93;3.63;;;;;;;;;;5091075;28;20542;-81
2022/04/13 02:41:14;;;;;;;6.20;4.33;;;;;;;;;;5086253;28;20921;-79
2022/04/13 02:43:41;;;;;;;6.40;4.53;;;;;;;;;;5085347;28;20479;-80
2022/04/13 02:46:09;;;;;;;4.03;3.50;;;;;;;;;;5087782;28;20450;-81
2022/04/13 02:48:37;;;;;;;4.50;4.03;;;;;;;;;;5088481;28;20459;-81
2022/04/13 02:51:04;;;;;;;5.63;3.83;;;;;;;;;;5089017;28;20443;-80
2022/04/13 02:53:32;;;;;;;5.10;3.90;;;;;;;;;;5088114;28;20443;-78
2022/04/13 02:55:59;;;;;;;4.53;4.13;;;;;;;;;;5088955;28;20691;-79
2022/04/13 02:58:26;;;;;;;4.50;3.90;;;;;;;;;;5090667;28;20498;-77
2022/04/13 03:00:54;;;;;;;3.83;3.53;;;;;;;;;;5090944;28;20442;-79
2022/04/13 03:03:22;;;;;;;4.97;3.80;;;;;;;;;;5087398;28;20889;-77
2022/04/13 03:05:50;;;;;;;8.40;4.00;;;;;;;;;;5089279;28;20463;-79
2022/04/13 03:08:17;;;;;;;4.57;3.87;;;;;;;;;;5091059;28;20447;-80
2022/04/13 03:10:45;;;;;;;6.00;4.50;;;;;;;;;;5092466;28;20441;-83
2022/04/13 03:13:12;;;;;;;4.63;4.20;;;;;;;;;;5092364;28;20944;-79
2022/04/13 03:15:39;;;;;;;5.60;3.80;;;;;;;;;;5092568;28;20444;-81
2022/04/13 03:18:06;;;;;;;6.43;5.40;;;;;;;;;;5093096;28;20470;-80
2022/04/13 03:20:34;;;;;;;7.00;4.57;;;;;;;;;;5093808;28;20455;-80
2022/04/13 03:23:03;;;;;;;6.27;4.53;;;;;;;;;;5093465;28;20493;-79
2022/04/13 03:25:30;;;;;;;5.33;4.80;;;;;;;;;;5092451;28;20435;-81
2022/04/13 03:27:57;;;;;;;5.33;4.53;;;;;;;;;;5088639;28;20531;-78
2022/04/13 03:30:24;;;;;;;5.73;3.87;;;;;;;;;;5089859;28;20455;-83
2022/04/13 03:32:52;;;;;;;8.40;4.70;;;;;;;;;;5092237;28;20466;-79
2022/04/13 03:35:19;;;;;;;5.10;4.40;;;;;;;;;;5092150;28;20431;-80
2022/04/13 03:37:46;;;;;;;5.73;4.30;;;;;;;;;;5092260;28;20823;-81
2022/04/13 03:40:14;;;;;;;5.67;4.00;;;;;;;;;;5092780;28;20436;-79
2022/04/13 03:42:43;;;;;;;6.63;4.20;;;;;;;;;;5092892;28;20450;-82
2022/04/13 03:45:11;;;;;;;9.30;5.33;;;;;;;;;;5093183;28;20478;-82
2022/04/13 03:47:39;;;;;;;8.90;5.00;;;;;;;;;;5092941;28;20534;-79
2022/04/13 03:50:06;;;;;;;10.47;5.97;;;;;;;;;;5087041;28;20788;-83
2022/04/13 03:52:34;;;;;;;9.50;5.60;;;;;;;;;;5089153;28;20791;-80
2022/04/13 03:55:01;;;;;;;6.33;5.20;;;;;;;;;;5091726;28;20451;-78
2022/04/13 03:57:30;;;;;;;6.83;4.67;;;;;;;;;;5090196;28;20447;-79
2022/04/13 03:59:57;;;;;;;8.27;5.20;;;;;;;;;;5092223;28;20443;-81
2022/04/13 04:02:24;;;;;;;5.80;4.57;;;;;;;;;;5092091;28;20436;-79
2022/04/13 04:04:51;;;;;;;10.53;4.50;;;;;;;;;;5092086;28;20495;-79
2022/04/13 04:07:19;;;;;;;5.93;4.30;;;;;;;;;;5093660;28;20439;-77
2022/04/13 04:09:46;;;;;;;4.30;3.80;;;;;;;;;;5093786;28;20553;-81
2022/04/13 04:12:13;;;;;;;6.93;4.40;;;;;;;;;;5088079;28;20925;-79
2022/04/13 04:14:41;;;;;;;4.97;3.80;;;;;;;;;;5088571;28;20443;-81
2022/04/13 04:17:09;;;;;;;4.47;3.60;;;;;;;;;;5090198;28;20940;-82
2022/04/13 04:19:36;;;;;;;4.90;4.40;;;;;;;;;;5091237;28;20462;-78
2022/04/13 04:22:03;;;;;;;6.00;4.40;;;;;;;;;;5091324;28;20428;-79
2022/04/13 04:24:30;;;;;;;5.17;4.27;;;;;;;;;;5091879;28;20585;-82
2022/04/13 04:26:57;;;;;;;7.10;5.33;;;;;;;;;;5091500;28;20484;-79
2022/04/13 04:29:25;;;;;;;8.73;4.70;;;;;;;;;;5093264;28;21021;-79
2022/04/13 04:31:54;;;;;;;5.77;4.53;;;;;;;;;;5093106;28;20609;-79
2022/04/13 04:34:22;;;;;;;4.60;4.03;;;;;;;;;;5089724;28;20428;-83
2022/04/13 04:36:49;;;;;;;6.37;3.63;;;;;;;;;;5087821;28;20432;-81
2022/04/13 04:39:16;;;;;;;5.53;4.30;;;;;;;;;;5089679;28;20455;-79
2022/04/13 04:41:44;;;;;;;5.00;4.50;;;;;;;;;;5089492;28;20439;-80
2022/04/13 04:44:11;;;;;;;5.90;4.03;;;;;;;;;;5090794;28;20483;-80
2022/04/13 04:46:38;;;;;;;5.57;4.20;;;;;;;;;;5090874;28;20447;-81
2022/04/13 04:49:08;;;;;;;5.47;4.90;;;;;;;;;;5090880;28;20821;-80
2022/04/13 04:51:35;;;;;;;8.30;4.50;;;;;;;;;;5091922;28;20921;-81
2022/04/13 04:54:03;;;;;;;6.07;4.73;;;;;;;;;;5092952;28;20435;-79
2022/04/13 04:56:30;;;;;;;6.67;4.80;;;;;;;;;;5089988;28;20428;-80
2022/04/13 04:58:58;;;;;;;5.00;4.33;;;;;;;;;;5086652;28;20462;-80
2022/04/13 05:01:25;;;;;;;8.17;5.57;;;;;;;;;;5087807;28;20427;-81
2022/04/13 05:03:52;;;;;;;5.20;4.30;;;;;;;;;;5090281;28;20540;-80
2022/04/13 05:06:22;;;;;;;4.07;3.67;;;;;;;;;;5090343;28;20446;-81
2022/04/13 05:08:49;;;;;;;6.03;3.93;;;;;;;;;;5089237;28;20514;-80
2022/04/13 05:11:16;;;;;;;5.07;3.57;;;;;;;;;;5090453;28;20435;-82
2022/04/13 05:13:45;;;;;;;5.47;4.20;;;;;;;;;;5089834;28;20886;-82
2022/04/13 05:16:13;;;;;;;6.00;4.30;;;;;;;;;;5092261;28;20539;-82
2022/04/13 05:18:41;;;;;;;8.10;4.37;;;;;;;;;;5092639;28;20455;-79
2022/04/13 05:21:08;;;;;;;5.43;4.10;;;;;;;;;;5087311;28;20447;-80
2022/04/13 05:23:37;;;;;;;9.13;5.60;;;;;;;;;;5086879;28;20574;-77
2022/04/13 05:26:04;;;;;;;5.50;4.50;;;;;;;;;;5089463;28;20450;-78
2022/04/13 05:28:31;;;;;;;5.03;4.30;;;;;;;;;;5089946;28;20991;-78
2022/04/13 05:30:58;;;;;;;6.57;4.80;;;;;;;;;;5088514;28;20475;-79
2022/04/13 05:33:26;;;;;;;6.00;5.03;;;;;;;;;;5090990;28;20435;-78
2022/04/13 05:35:53;;;;;;;8.20;5.13;;;;;;;;;;5090329;28;20457;-78
2022/04/13 05:38:20;;;;;;;4.60;4.20;;;;;;;;;;5092087;28;20460;-77
2022/04/13 05:40:48;;;;;;;5.83;4.60;;;;;;;;;;5091848;28;20447;-85
2022/04/13 05:43:16;;;;;;;8.03;4.77;;;;;;;;;;5088408;28;20451;-86
2022/04/13 05:45:43;;;;;;;6.33;4.70;;;;;;;;;;5085829;28;20954;-84
2022/04/13 05:48:15;;;;;;;10.47;5.10;;;;;;;;;;5087949;28;20449;-83
2022/04/13 05:50:42;;;;;;;6.13;4.57;;;;;;;;;;5089670;28;20517;-83
2022/04/13 05:53:09;;;;;;;5.03;4.17;;;;;;;;;;5089388;28;20450;-80
2022/04/13 05:55:36;;;;;;;7.57;5.10;;;;;;;;;;5089742;28;20438;-81
2022/04/13 05:58:05;;;;;;;8.00;4.47;;;;;;;;;;5089949;28;20462;-82
2022/04/13 06:00:32;;;;;;;6.00;4.37;;;;;;;;;;5090666;28;20442;-85
2022/04/13 06:02:59;;;;;;;15.00;5.30;;;;;;;;;;5091551;28;20431;-87
2022/04/13 06:05:26;;;;;;;5.27;4.40;;;;;;;;;;5090078;28;20494;-85
2022/04/13 06:07:54;;;;;;;6.60;5.20;;;;;;;;;;5085573;28;20454;-82
2022/04/13 06:10:21;;;;;;;6.30;4.50;;;;;;;;;;5086275;28;20493;-86
2022/04/13 06:12:49;;;;;;;7.70;4.73;;;;;;;;;;5089264;28;20442;-82
2022/04/13 06:15:17;;;;;;;9.43;6.03;;;;;;;;;;5089352;28;20447;-83
2022/04/13 06:17:44;;;;;;;8.70;4.87;;;;;;;;;;5093466;28;20463;-84
2022/04/13 06:20:14;;;;;;;8.27;5.33;;;;;;;;;;5090016;28;20480;-85
2022/04/13 06:22:42;;;;;;;6.93;5.40;;;;;;;;;;5089981;28;20455;-87
2022/04/13 06:25:10;;;;;;;6.23;4.40;;;;;;;;;;5091291;28;20874;-85
2022/04/13 06:27:37;;;;;;;6.30;4.90;;;;;;;;;;5090948;28;20418;-84
2022/04/13 06:30:05;;;;;;;5.10;4.20;;;;;;;;;;5085893;28;20793;-84
2022/04/13 06:32:34;;;;;;;7.73;4.10;;;;;;;;;;5084862;28;20483;-86
2022/04/13 06:35:02;;;;;;;6.63;4.33;;;;;;;;;;5086628;28;20449;-86
2022/04/13 06:37:29;;;;;;;5.80;4.80;;;;;;;;;;5089504;28;20848;-87
2022/04/13 06:39:57;;;;;;;6.03;3.83;;;;;;;;;;5089559;28;20506;-85
2022/04/13 06:42:24;;;;;;;7.23;3.87;;;;;;;;;;5090414;28;20415;-87
2022/04/13 06:44:51;;;;;;;6.20;3.73;;;;;;;;;;5089389;28;21340;-86
2022/04/13 06:47:22;;;;;;;4.70;3.60;;;;;;;;;;5088929;28;20727;-86
2022/04/13 06:49:50;;;;;;;6.50;4.60;;;;;;;;;;5088066;28;20496;-85
2022/04/13 06:52:17;;;;;;;4.27;3.67;;;;;;;;;;5089299;28;20417;-86
2022/04/13 06:54:48;;;;;;;7.63;5.00;;;;;;;;;;5089888;28;20512;-84
2022/04/13 06:57:15;;;;;;;6.13;3.70;;;;;;;;;;5090105;28;20503;-87
2022/04/13 06:59:42;;;;;;;8.33;4.20;;;;;;;;;;5090524;28;20463;-86
2022/04/13 07:02:10;;;;;;;5.90;3.80;;;;;;;;;;5089860;28;20449;-87
2022/04/13 07:04:38;;;;;;;7.10;3.70;;;;;;;;;;5090814;28;20532;-86
2022/04/13 07:07:06;;;;;;;5.47;3.60;;;;;;;;;;5092114;28;20475;-78
2022/04/13 07:09:34;;;;;;;6.43;3.90;;;;;;;;;;5088157;28;20542;-82
2022/04/13 07:12:02;;;;;;;6.40;3.67;;;;;;;;;;5087604;28;20422;-84
2022/04/13 07:14:29;;;;;;;7.97;3.50;;;;;;;;;;5088943;28;20446;-83
2022/04/13 07:16:56;;;;;;;8.47;3.53;;;;;;;;;;5090063;28;20917;-85
2022/04/13 07:19:23;;;;;;;6.20;3.60;;;;;;;;;;5089819;28;20441;-84
2022/04/13 07:21:50;;;;;;;13.57;4.50;;;;;;;;;;5090265;28;20443;-84
2022/04/13 07:24:19;;;;;;;5.90;4.07;;;;;;;;;;5090347;28;20510;-79
2022/04/13 07:26:46;;;;;;;7.60;4.17;;;;;;;;;;5091551;28;20447;-79
2022/04/13 07:29:13;;;;;;;11.33;5.30;;;;;;;;;;5091742;28;20991;-79
2022/04/13 07:31:40;;;;;;;8.93;4.33;;;;;;;;;;5090398;28;20473;-78
2022/04/13 07:34:07;;;;;;;8.10;4.47;;;;;;;;;;5088052;28;20431;-78
2022/04/13 07:36:35;;;;;;;9.70;5.03;;;;;;;;;;5088446;28;20443;-78
2022/04/13 07:39:02;;;;;;;13.57;4.80;;;;;;;;;;5088793;28;20459;-79
2022/04/13 07:41:30;;;;;;;14.73;5.47;;;;;;;;;;5089685;28;20504;-77
2022/04/13 07:43:58;;;;;;;5.93;4.20;;;;;;;;;;5090076;28;20439;-79
2022/04/13 07:46:27;;;;;;;8.23;4.83;;;;;;;;;;5090613;28;20535;-79
2022/04/13 07:48:54;;;;;;;5.93;3.70;;;;;;;;;;5090523;28;20483;-78
2022/04/13 07:51:22;;;;;;;7.20;5.00;;;;;;;;;;5092034;28;20442;-81
2022/04/13 07:53:51;;;;;;;5.60;4.40;;;;;;;;;;5095665;28;20443;-85
2022/04/13 07:56:18;;;;;;;8.53;5.20;;;;;;;;;;5090969;28;20428;-77
2022/04/13 07:58:47;;;;;;;8.60;5.20;;;;;;;;;;5091525;28;20455;-84
2022/04/13 08:01:15;;;;;;;6.90;4.10;;;;;;;;;;5093142;28;20443;-82
2022/04/13 08:03:42;;;;;;;10.27;5.67;;;;;;;;;;5093169;28;20535;-80
2022/04/13 08:06:11;;;;;;;9.73;5.40;;;;;;;;;;5093161;28;21013;-81
2022/04/13 08:08:38;;;;;;;9.87;4.90;;;;;;;;;;5094023;28;20459;-80
2022/04/13 08:11:05;;;;;;;13.10;5.37;;;;;;;;;;5093343;28;20455;-81
2022/04/13 08:13:33;;;;;;;9.90;5.60;;;;;;;;;;5095376;28;21039;-81
2022/04/13 08:16:02;;;;;;;7.73;4.80;;;;;;;;;;5095490;28;20442;-81
2022/04/13 08:18:30;;;;;;;11.10;5.00;;;;;;;;;;5093965;28;20463;-78
2022/04/13 08:20:57;;;;;;;6.50;5.00;;;;;;;;;;5090760;28;20435;-79
2022/04/13 08:23:24;;;;;;;7.37;5.50;;;;;;;;;;5091528;28;20458;-79
2022/04/13 08:25:52;;;;;;;7.30;4.87;;;;;;;;;;5092439;28;20490;-81
2022/04/13 08:28:19;;;;;;;7.93;4.60;;;;;;;;;;5092654;28;20951;-78
2022/04/13 08:30:47;;;;;;;8.60;5.00;;;;;;;;;;5092660;28;20431;-78
2022/04/13 08:33:15;;;;;;;10.90;5.40;;;;;;;;;;5093209;28;20443;-82
2022/04/13 08:35:43;;;;;;;10.23;4.70;;;;;;;;;;5094090;28;20474;-75
2022/04/13 08:38:10;;;;;;;8.53;5.43;;;;;;;;;;5094668;28;20486;-76
2022/04/13 08:40:40;;;;;;;8.83;5.53;;;;;;;;;;5093844;28;20447;-77
2022/04/13 08:43:10;;;;;;;10.50;5.00;;;;;;;;;;5090217;28;20447;-81
2022/04/13 08:45:41;;;;;;;8.73;5.83;;;;;;;;;;5089611;28;20571;-79
2022/04/13 08:48:12;;;;;;;11.40;6.27;;;;;;;;;;5092294;28;20486;-80
2022/04/13 08:50:46;;;;;;;7.90;4.63;;;;;;;;;;5094899;28;20450;-75
2022/04/13 08:53:16;;;;;;;8.53;5.00;;;;;;;;;;5094729;28;20439;-76
2022/04/13 08:55:48;;;;;;;8.70;4.50;;;;;;;;;;5095933;28;20439;-81
2022/04/13 08:58:20;;;;;;;8.77;4.97;;;;;;;;;;5096724;28;20467;-77
2022/04/13 09:00:50;;;;;;;7.53;4.37;;;;;;;;;;5096771;28;20859;-79
2022/04/13 09:03:24;;;;;;;9.93;5.30;;;;;;;;;;5097104;28;20462;-78
2022/04/13 09:05:53;;;;;;;11.60;4.97;;;;;;;;;;5093531;28;20475;-75
2022/04/13 09:08:22;;;;;;;9.13;4.20;;;;;;;;;;5092163;28;20447;-76
2022/04/13 09:10:51;;;;;;;7.10;4.70;;;;;;;;;;5094424;28;20455;-79
2022/04/13 09:13:20;;;;;;;9.87;4.37;;;;;;;;;;5095713;28;20455;-78
2022/04/13 09:15:48;;;;;;;13.60;5.53;;;;;;;;;;5095877;28;20435;-79
2022/04/13 09:18:15;;;;;;;7.80;4.80;;;;;;;;;;5094980;28;20459;-77
2022/04/13 09:20:42;;;;;;;7.60;4.77;;;;;;;;;;5095032;28;20489;-78
2022/04/13 09:23:11;;;;;;;7.77;5.23;;;;;;;;;;5096039;28;20439;-80
2022/04/13 09:25:39;;;;;;;12.60;5.17;;;;;;;;;;5095309;28;20478;-81
2022/04/13 09:28:09;;;;;;;11.37;6.03;;;;;;;;;;5092318;28;20471;-80
2022/04/13 09:30:37;;;;;;;13.50;5.93;;;;;;;;;;5091185;28;20457;-79
2022/04/13 09:33:04;;;;;;;10.40;5.20;;;;;;;;;;5092056;28;20450;-80
2022/04/13 09:35:35;;;;;;;7.43;4.20;;;;;;;;;;5092696;28;20446;-80
2022/04/13 09:38:03;;;;;;;6.27;4.47;;;;;;;;;;5092478;28;20448;-75
2022/04/13 09:40:35;;;;;;;5.03;3.77;;;;;;;;;;5091892;28;20492;-77
2022/04/13 09:43:06;;;;;;;6.50;3.67;;;;;;;;;;5091716;28;20809;-76
2022/04/13 09:45:35;;;;;;;8.47;4.40;;;;;;;;;;5093574;28;20478;-77
2022/04/13 09:48:05;;;;;;;7.30;4.37;;;;;;;;;;5094034;28;20490;-76
2022/04/13 09:50:32;;;;;;;7.83;4.30;;;;;;;;;;5092911;28;20788;-76
2022/04/13 09:53:03;;;;;;;6.57;4.33;;;;;;;;;;5089661;28;20801;-76
2022/04/13 09:55:31;;;;;;;9.30;5.00;;;;;;;;;;5088482;28;20457;-77
2022/04/13 09:58:07;;;;;;;10.50;4.80;;;;;;;;;;5091363;28;20463;-77
2022/04/13 10:00:35;;;;;;;6.63;4.50;;;;;;;;;;5091047;28;20866;-78
2022/04/13 10:03:17;;;;;;;4.70;3.30;;;;;;;;;;5091564;28;20462;-77
2022/04/13 10:05:45;;;;;;;5.90;4.20;;;;;;;;;;5090575;28;20475;-76
2022/04/13 10:08:13;;;;;;;4.73;3.30;;;;;;;;;;5091887;28;20570;-76
2022/04/13 10:10:42;;;;;;;6.53;3.87;;;;;;;;;;5091853;28;20446;-77
2022/04/13 10:13:10;;;;;;;6.13;4.00;;;;;;;;;;5092646;28;20446;-76
2022/04/13 10:15:57;;;;;;;9.30;4.63;;;;;;;;;;5087025;28;20435;-77
2022/04/13 10:18:24;;;;;;;5.93;4.07;;;;;;;;;;5089175;28;20450;-75
2022/04/13 10:20:51;;;;;;;7.87;3.30;;;;;;;;;;5090418;28;20447;-77
2022/04/13 10:23:18;;;;;;;7.40;3.67;;;;;;;;;;5090577;28;20439;-76
2022/04/13 10:25:45;;;;;;;6.37;3.80;;;;;;;;;;5090535;28;20475;-77
2022/04/13 10:28:22;;;;;;;9.40;4.50;;;;;;;;;;5090842;28;20464;-76
2022/04/13 10:30:49;;;;;;;8.07;4.37;;;;;;;;;;5090787;28;20485;-76
2022/04/13 10:33:16;;;;;;;6.93;4.03;;;;;;;;;;5089854;28;20452;-76
2022/04/13 10:35:46;;;;;;;6.17;4.80;;;;;;;;;;5088422;28;20427;-76
2022/04/13 10:38:14;;;;;;;6.17;2.93;;;;;;;;;;5089571;28;20459;-75
2022/04/13 10:40:42;;;;;;;8.73;4.70;;;;;;;;;;5089286;28;20805;-75
2022/04/13 10:43:10;;;;;;;6.83;4.07;;;;;;;;;;5090578;28;20444;-77
2022/04/13 10:45:40;;;;;;;6.10;3.70;;;;;;;;;;5090951;28;20478;-76
2022/04/13 10:48:08;;;;;;;7.00;4.10;;;;;;;;;;5089042;28;20459;-77
2022/04/13 10:50:39;;;;;;;4.50;2.80;;;;;;;;;;5092694;28;20438;-77
2022/04/13 10:53:14;;;;;;;6.13;3.20;;;;;;;;;;5091201;28;20439;-77
2022/04/13 10:55:41;;;;;;;3.90;2.27;;;;;;;;;;5091205;28;20445;-77
2022/04/13 10:58:12;;;;;;;6.40;3.13;;;;;;;;;;5088007;28;20806;-76
2022/04/13 11:00:41;;;;;;;6.03;3.10;;;;;;;;;;5086924;28;20442;-77
2022/04/13 11:03:09;;;;;;;5.50;3.17;;;;;;;;;;5088795;28;20443;-76
2022/04/13 11:05:36;;;;;;;5.50;2.70;;;;;;;;;;5090047;28;20481;-77
2022/04/13 11:08:10;;;;;;;5.43;2.77;;;;;;;;;;5090435;28;20486;-77
2022/04/13 11:10:37;;;;;;;5.60;2.90;;;;;;;;;;5090875;28;20807;-77
2022/04/13 11:13:04;;;;;;;8.03;3.53;;;;;;;;;;5076834;28;20478;-77
2022/04/13 11:15:42;;;;;;;10.10;3.17;;;;;;;;;;5082064;28;20435;-77
2022/04/13 11:18:10;;;;;;;5.13;2.70;;;;;;;;;;5087644;28;20470;-76
2022/04/13 11:20:38;;;;;;;6.17;2.63;;;;;;;;;;5087691;28;20439;-77
2022/04/13 11:23:09;;;;;;;7.47;3.07;;;;;;;;;;5090045;28;20446;-77
2022/04/13 11:25:44;;;;;;;5.67;2.77;;;;;;;;;;5090800;28;20479;-79
2022/04/13 11:28:12;;;;;;;4.57;2.80;;;;;;;;;;5095197;28;20458;-78
2022/04/13 11:30:54;;;;;;;4.77;2.53;;;;;;;;;;5093782;28;20450;-78
2022/04/13 11:33:22;;;;;;;6.93;3.57;;;;;;;;;;5095847;28;20443;-77
2022/04/13 11:35:55;;;;;;;4.70;2.80;;;;;;;;;;5096207;28;20434;-77
2022/04/13 11:38:22;;;;;;;9.47;4.10;;;;;;;;;;5094026;28;20852;-78
2022/04/13 11:41:04;;;;;;;5.67;3.60;;;;;;;;;;5091725;28;20438;-76
2022/04/13 11:43:31;;;;;;;7.97;3.93;;;;;;;;;;5091469;28;20438;-78
2022/04/13 11:46:00;;;;;;;10.43;3.90;;;;;;;;;;5093637;28;20478;-78
2022/04/13 11:48:36;;;;;;;7.27;3.57;;;;;;;;;;5093861;28;20995;-77
2022/04/13 11:51:18;;;;;;;9.30;4.00;;;;;;;;;;5094242;28;20469;-79
2022/04/13 11:53:54;;;;;;;9.60;4.30;;;;;;;;;;5093063;28;20431;-78
2022/04/13 11:56:32;;;;;;;7.37;3.50;;;;;;;;;;5095696;28;20434;-78
2022/04/13 11:58:59;;;;;;;7.80;3.77;;;;;;;;;;5095688;28;20528;-78
2022/04/13 12:01:26;;;;;;;8.87;3.90;;;;;;;;;;5093640;28;20439;-78
2022/04/13 12:03:56;;;;;;;9.47;4.43;;;;;;;;;;5091334;28;20439;-77
2022/04/13 12:06:25;;;;;;;8.83;3.93;;;;;;;;;;5091521;28;20544;-76
2022/04/13 12:08:53;;;;;;;6.10;3.27;;;;;;;;;;5093034;28;20463;-76
2022/04/13 12:11:21;;;;;;;7.37;3.27;;;;;;;;;;5093240;28;20800;-78
2022/04/13 12:13:50;;;;;;;7.83;4.13;;;;;;;;;;5092172;28;20443;-76
2022/04/13 12:16:18;;;;;;;8.60;3.63;;;;;;;;;;5093982;28;20439;-79
2022/04/13 12:18:45;;;;;;;9.07;4.70;;;;;;;;;;5094321;28;20884;-77
2022/04/13 12:21:15;;;;;;;9.97;4.30;;;;;;;;;;5095127;28;20461;-79
2022/04/13 12:23:42;;;;;;;8.27;4.13;;;;;;;;;;5094161;28;20560;-80
2022/04/13 12:26:10;;;;;;;10.10;4.57;;;;;;;;;;5082955;28;20520;-78
2022/04/13 12:28:37;;;;;;;7.47;4.90;;;;;;;;;;5089740;28;20459;-78
2022/04/13 12:31:06;;;;;;;6.23;4.40;;;;;;;;;;5091270;28;20466;-76
2022/04/13 12:33:33;;;;;;;6.60;4.97;;;;;;;;;;5091445;28;20780;-79
2022/04/13 12:36:01;;;;;;;10.07;4.53;;;;;;;;;;5092923;28;20443;-77
2022/04/13 12:38:30;;;;;;;11.50;5.50;;;;;;;;;;5091948;28;20502;-79
2022/04/13 12:41:02;;;;;;;9.40;5.97;;;;;;;;;;5093301;28;20444;-76
2022/04/13 12:43:30;;;;;;;8.20;5.07;;;;;;;;;;5094917;28;20470;-80
2022/04/13 12:45:57;;;;;;;6.03;3.83;;;;;;;;;;5092321;28;20515;-77
2022/04/13 12:48:26;;;;;;;8.67;4.47;;;;;;;;;;5088678;28;20470;-74
2022/04/13 12:50:57;;;;;;;7.00;3.97;;;;;;;;;;5090049;28;20944;-75
2022/04/13 12:53:24;;;;;;;7.77;4.37;;;;;;;;;;5092602;28;20470;-76
2022/04/13 12:55:54;;;;;;;10.60;4.60;;;;;;;;;;5092520;28;21135;-76
2022/04/13 12:58:22;;;;;;;9.00;3.93;;;;;;;;;;5091666;28;20463;-75
2022/04/13 13:00:50;;;;;;;11.60;3.53;;;;;;;;;;5092515;28;20462;-76
2022/04/13 13:03:18;;;;;;;12.47;4.37;;;;;;;;;;5093667;28;20463;-76
2022/04/13 13:05:45;;;;;;;7.20;5.60;;;;;;;;;;5093257;28;20447;-75
2022/04/13 13:08:13;;;;;;;10.33;7.00;;;;;;;;;;5091933;28;20487;-75
2022/04/13 13:10:43;;;;;;;8.10;5.40;;;;;;;;;;5089721;28;20444;-75
2022/04/13 13:13:13;;;;;;;9.20;5.70;;;;;;;;;;5090316;28;20549;-76
2022/04/13 13:15:40;;;;;;;12.90;5.77;;;;;;;;;;5091103;28;20442;-75
2022/04/13 13:18:08;;;;;;;9.37;5.37;;;;;;;;;;5091954;28;20463;-75
2022/04/13 13:20:36;;;;;;;12.13;6.43;;;;;;;;;;5092005;28;20444;-75
2022/04/13 13:23:08;;;;;;;8.90;5.70;;;;;;;;;;5092563;28;20447;-74
2022/04/13 13:25:43;;;;;;;13.17;6.00;;;;;;;;;;5092721;28;20448;-76
2022/04/13 13:28:11;;;;;;;9.03;6.20;;;;;;;;;;5093917;28;20459;-76
2022/04/13 13:30:40;;;;;;;6.53;5.17;;;;;;;;;;5093264;28;20513;-75
2022/04/13 13:33:10;;;;;;;9.30;4.90;;;;;;;;;;5089607;28;20442;-75
2022/04/13 13:35:38;;;;;;;10.77;5.90;;;;;;;;;;5089885;28;20435;-75
2022/04/13 13:38:08;;;;;;;7.87;5.57;;;;;;;;;;5089821;28;20457;-75
2022/04/13 13:40:42;;;;;;;9.93;5.30;;;;;;;;;;5091264;28;20789;-75
2022/04/13 13:43:11;;;;;;;5.73;4.23;;;;;;;;;;5091706;28;20504;-75
2022/04/13 13:45:40;;;;;;;7.07;3.70;;;;;;;;;;5092069;28;20784;-74
2022/04/13 13:48:09;;;;;;;7.83;5.60;;;;;;;;;;5091458;28;20497;-75
2022/04/13 13:50:36;;;;;;;9.87;5.27;;;;;;;;;;5091838;28;20449;-74
2022/04/13 13:53:03;;;;;;;10.23;6.80;;;;;;;;;;5093387;28;20450;-75
2022/04/13 13:55:32;;;;;;;9.50;5.90;;;;;;;;;;5089646;28;20439;-75
2022/04/13 13:57:59;;;;;;;9.50;5.13;;;;;;;;;;5088754;28;20455;-77
2022/04/13 14:00:28;;;;;;;8.67;6.33;;;;;;;;;;5090734;28;20447;-75
2022/04/13 14:02:56;;;;;;;8.83;4.87;;;;;;;;;;5089794;28;20439;-75
2022/04/13 14:05:24;;;;;;;11.27;5.90;;;;;;;;;;5089640;28;20500;-75
2022/04/13 14:07:52;;;;;;;9.13;6.83;;;;;;;;;;5090517;28;20483;-75
2022/04/13 14:10:19;;;;;;;9.50;5.00;;;;;;;;;;5091208;28;20451;-75
2022/04/13 14:12:46;;;;;;;8.40;5.70;;;;;;;;;;5092859;28;20450;-75
2022/04/13 14:15:14;;;;;;;8.37;4.70;;;;;;;;;;5092959;28;20454;-75
2022/04/13 14:17:42;;;;;;;7.33;5.00;;;;;;;;;;5089726;28;20888;-75
2022/04/13 14:20:11;;;;;;;6.53;4.37;;;;;;;;;;5088270;28;20444;-74
2022/04/13 14:22:39;;;;;;;6.63;4.30;;;;;;;;;;5089404;28;20450;-75
2022/04/13 14:25:07;;;;;;;6.30;4.70;;;;;;;;;;5090346;28;20439;-74
2022/04/13 14:27:35;;;;;;;8.70;5.00;;;;;;;;;;5089950;28;20483;-73
2022/04/13 14:30:02;;;;;;;4.83;4.20;;;;;;;;;;5090760;28;20505;-74
2022/04/13 14:32:29;;;;;;;9.27;3.87;;;;;;;;;;5090323;28;20510;-75
2022/04/13 14:34:57;;;;;;;5.00;3.57;;;;;;;;;;5089411;28;21531;-74
2022/04/13 14:37:26;;;;;;;6.93;3.90;;;;;;;;;;5088077;28;20431;-74
2022/04/13 14:39:53;;;;;;;7.90;4.23;;;;;;;;;;5089121;28;20454;-73
2022/04/13 14:42:20;;;;;;;8.13;4.43;;;;;;;;;;5090179;28;20789;-74
2022/04/13 14:44:47;;;;;;;6.50;4.27;;;;;;;;;;5090366;28;20443;-74
2022/04/13 14:47:14;;;;;;;9.53;4.77;;;;;;;;;;5090523;28;20475;-76